Time;durP1;ratioP1;P1;durP2;ratioP2;P2;SDS_P1;SDS_P2;PMS_P1;PMS_P2;Temp;Humidity;BMP_temperature;BMP_pressure;BME280_temperature;BME280_humidity;BME280_pressure;Samples;Min_cycle;Max_cycle;Signal;HPM_P1;HPM_P2
2023/03/24 00:00:24;;;;;;;13.73;6.50;;;10.80;99.90;;;;;;4995380;28;20041;-75
2023/03/24 00:02:50;;;;;;;16.35;7.40;;;10.90;99.90;;;;;;4993747;28;20571;-78
2023/03/24 00:05:21;;;;;;;16.67;6.40;;;10.90;99.90;;;;;;4988225;28;20045;-75
2023/03/24 00:07:48;;;;;;;16.60;6.80;;;10.80;99.90;;;;;;4994385;28;20070;-76
2023/03/24 00:10:21;;;;;;;14.27;6.82;;;10.90;99.90;;;;;;4982816;28;20046;-78
2023/03/24 00:12:48;;;;;;;13.63;6.90;;;10.90;99.90;;;;;;4974893;28;20046;-75
2023/03/24 00:15:17;;;;;;;15.35;6.70;;;10.90;99.90;;;;;;4995048;28;20046;-77
2023/03/24 00:17:45;;;;;;;15.50;6.47;;;10.90;99.90;;;;;;4980000;28;20089;-76
2023/03/24 00:20:14;;;;;;;15.65;6.93;;;10.90;99.90;;;;;;4984041;28;20057;-77
2023/03/24 00:22:55;;;;;;;13.50;7.00;;;10.80;99.90;;;;;;4953759;28;20042;-79
2023/03/24 00:25:27;;;;;;;15.20;6.80;;;10.80;99.90;;;;;;4998549;28;20050;-76
2023/03/24 00:27:56;;;;;;;14.90;6.35;;;10.80;99.90;;;;;;5008346;28;20042;-76
2023/03/24 00:30:23;;;;;;;14.30;6.85;;;10.80;99.90;;;;;;4958245;28;20053;-76
2023/03/24 00:32:50;;;;;;;13.63;6.30;;;10.80;99.90;;;;;;4957792;28;20054;-77
2023/03/24 00:35:17;;;;;;;11.30;6.15;;;10.80;99.90;;;;;;4977312;28;20049;-77
2023/03/24 00:37:43;;;;;;;11.73;6.38;;;10.80;99.90;;;;;;4992872;28;20126;-76
2023/03/24 00:40:18;;;;;;;15.88;6.00;;;10.80;99.90;;;;;;4975015;28;20889;-76
2023/03/24 00:42:45;;;;;;;12.73;6.03;;;10.70;99.90;;;;;;4998932;28;20132;-77
2023/03/24 00:45:14;;;;;;;12.75;6.15;;;10.80;99.90;;;;;;4992842;28;20614;-77
2023/03/24 00:47:43;;;;;;;12.32;6.07;;;10.70;99.90;;;;;;4994720;28;20049;-76
2023/03/24 00:50:14;;;;;;;15.57;6.72;;;11.30;99.90;;;;;;4975999;28;20531;-76
2023/03/24 00:52:46;;;;;;;14.68;6.38;;;10.70;99.90;;;;;;4998212;28;20045;-76
2023/03/24 00:55:14;;;;;;;11.93;5.68;;;10.70;99.90;;;;;;4987571;28;20601;-78
2023/03/24 00:57:51;;;;;;;16.35;6.38;;;10.70;99.90;;;;;;4983339;28;20365;-76
2023/03/24 01:00:20;;;;;;;12.27;5.70;;;10.70;99.90;;;;;;4991929;28;20038;-77
2023/03/24 01:02:47;;;;;;;14.32;6.43;;;10.70;99.90;;;;;;4994462;28;20050;-78
2023/03/24 01:05:16;;;;;;;11.07;5.72;;;10.70;99.90;;;;;;5008682;28;20054;-76
2023/03/24 01:07:42;;;;;;;11.77;5.78;;;10.70;99.90;;;;;;4975061;28;20074;-77
2023/03/24 01:10:13;;;;;;;11.82;5.97;;;10.70;99.90;;;;;;4977905;28;20115;-77
2023/03/24 01:12:39;;;;;;;13.13;5.95;;;10.70;99.90;;;;;;4994559;28;20046;-76
2023/03/24 01:15:13;;;;;;;11.50;5.72;;;10.80;99.90;;;;;;4961092;28;20049;-78
2023/03/24 01:17:39;;;;;;;14.50;6.25;;;10.70;99.90;;;;;;4988541;28;20504;-77
2023/03/24 01:20:07;;;;;;;14.18;6.22;;;10.80;99.90;;;;;;4990875;28;20113;-74
2023/03/24 01:22:36;;;;;;;10.60;5.88;;;10.70;99.90;;;;;;4995851;28;20563;-76
2023/03/24 01:25:04;;;;;;;10.80;6.22;;;10.80;99.90;;;;;;5008577;28;20046;-76
2023/03/24 01:27:32;;;;;;;12.25;6.18;;;10.80;99.90;;;;;;4991291;28;20058;-74
2023/03/24 01:30:00;;;;;;;9.50;5.93;;;10.80;99.90;;;;;;4990137;28;20058;-76
2023/03/24 01:32:27;;;;;;;11.70;6.47;;;10.80;99.90;;;;;;4990722;28;20583;-81
2023/03/24 01:34:53;;;;;;;11.73;5.85;;;10.80;99.90;;;;;;4975303;28;20052;-76
2023/03/24 01:37:19;;;;;;;9.90;6.85;;;10.80;99.90;;;;;;4992402;28;20045;-80
2023/03/24 01:39:45;;;;;;;13.00;6.15;;;10.80;99.90;;;;;;4987675;28;20060;-80
2023/03/24 01:42:17;;;;;;;11.00;6.22;;;10.80;99.90;;;;;;4977455;28;20152;-77
2023/03/24 01:44:53;;;;;;;11.50;7.13;;;10.90;99.90;;;;;;4982387;28;20484;-75
2023/03/24 01:47:19;;;;;;;12.60;7.00;;;12.10;99.90;;;;;;4976659;28;20132;-81
2023/03/24 01:49:55;;;;;;;11.13;6.75;;;10.90;99.90;;;;;;4989422;28;20085;-75
2023/03/24 01:52:30;;;;;;;11.43;6.38;;;10.90;99.90;;;;;;4993596;28;20610;-78
2023/03/24 01:55:06;;;;;;;10.07;6.05;;;10.80;99.90;;;;;;4973575;28;20129;-77
2023/03/24 01:57:37;;;;;;;10.95;6.50;;;10.90;99.90;;;;;;4993832;28;20077;-76
2023/03/24 02:00:09;;;;;;;10.25;6.20;;;10.90;99.90;;;;;;4989239;28;20057;-78
2023/03/24 02:02:37;;;;;;;12.38;6.90;;;10.90;99.90;;;;;;4991475;28;20378;-76
2023/03/24 02:05:07;;;;;;;10.38;6.75;;;10.90;99.90;;;;;;4990908;28;20043;-75
2023/03/24 02:07:51;;;;;;;9.38;5.80;;;10.90;99.90;;;;;;4993410;28;20050;-76
2023/03/24 02:10:18;;;;;;;11.05;6.38;;;10.90;99.90;;;;;;4989522;28;20060;-77
2023/03/24 02:12:45;;;;;;;12.20;6.97;;;10.90;99.90;;;;;;4972197;28;20085;-75
2023/03/24 02:15:14;;;;;;;9.85;6.30;;;10.90;99.90;;;;;;4995510;28;20049;-76
2023/03/24 02:17:42;;;;;;;10.27;5.90;;;10.90;99.90;;;;;;4994554;28;20046;-76
2023/03/24 02:20:36;;;;;;;14.05;6.07;;;10.90;99.90;;;;;;4995352;28;20049;-76
2023/03/24 02:23:25;;;;;;;13.00;4.43;;;10.80;99.90;;;;;;4991199;28;20050;-76
2023/03/24 02:26:19;;;;;;;15.68;3.83;;;10.80;99.90;;;;;;4996262;28;20045;-76
2023/03/24 02:28:48;;;;;;;13.82;3.65;;;10.70;99.90;;;;;;4996073;28;20066;-78
2023/03/24 02:32:01;;;;;;;18.55;4.32;;;10.70;99.90;;;;;;4996319;28;20165;-76
2023/03/24 02:34:55;;;;;;;12.38;3.83;;;10.60;99.90;;;;;;4971800;28;20054;-76
2023/03/24 02:37:41;;;;;;;18.38;3.42;;;10.60;99.90;;;;;;4994912;28;20103;-79
2023/03/24 02:40:14;;;;;;;13.55;2.83;;;10.50;99.90;;;;;;4993575;28;20073;-76
2023/03/24 02:42:52;;;;;;;15.65;3.08;;;10.50;99.90;;;;;;4992937;28;20050;-77
2023/03/24 02:45:44;;;;;;;13.77;3.28;;;10.50;99.90;;;;;;4993765;28;20058;-79
2023/03/24 02:48:25;;;;;;;13.75;3.42;;;10.40;99.90;;;;;;4990357;28;20052;-76
2023/03/24 02:51:14;;;;;;;12.02;2.60;;;10.40;99.90;;;;;;4994657;28;20052;-76
2023/03/24 02:54:10;;;;;;;17.10;3.20;;;10.40;99.90;;;;;;4995577;28;20046;-76
2023/03/24 02:56:43;;;;;;;10.05;2.90;;;10.30;99.90;;;;;;4979640;28;20053;-76
2023/03/24 03:00:07;;;;;;;11.00;2.50;;;10.30;99.90;;;;;;4994760;28;20049;-76
2023/03/24 03:02:38;;;;;;;13.82;2.80;;;10.30;99.90;;;;;;4938797;28;20994;-81
2023/03/24 03:05:27;;;;;;;12.40;3.17;;;10.20;99.90;;;;;;4945127;28;20050;-75
2023/03/24 03:07:56;;;;;;;11.57;2.72;;;10.20;99.90;;;;;;4989648;28;20700;-76
2023/03/24 03:10:36;;;;;;;11.98;2.42;;;10.20;99.90;;;;;;4992881;28;20465;-77
2023/03/24 03:13:08;;;;;;;14.82;2.90;;;10.10;99.90;;;;;;4992936;28;20046;-79
2023/03/24 03:15:42;;;;;;;10.48;2.92;;;10.10;99.90;;;;;;4976818;28;20049;-76
2023/03/24 03:18:15;;;;;;;17.73;3.03;;;10.10;99.90;;;;;;4976149;28;20038;-76
2023/03/24 03:20:51;;;;;;;13.68;2.67;;;10.00;99.90;;;;;;4992481;28;20485;-76
2023/03/24 03:23:30;;;;;;;12.38;2.72;;;10.00;99.90;;;;;;4994398;28;20103;-76
2023/03/24 03:26:04;;;;;;;12.73;2.83;;;9.90;99.90;;;;;;4980851;28;20082;-77
2023/03/24 03:28:35;;;;;;;15.18;3.10;;;9.90;99.90;;;;;;4992823;28;20825;-75
2023/03/24 03:31:06;;;;;;;16.13;3.13;;;9.90;99.90;;;;;;4991470;28;20100;-76
2023/03/24 03:33:57;;;;;;;17.88;3.00;;;9.80;99.90;;;;;;4965694;28;20050;-75
2023/03/24 03:36:52;;;;;;;16.65;2.90;;;9.80;99.90;;;;;;4993181;28;20050;-76
2023/03/24 03:39:27;;;;;;;14.07;2.90;;;9.70;99.90;;;;;;4980315;28;20169;-75
2023/03/24 03:41:53;;;;;;;12.63;3.20;;;9.70;99.90;;;;;;4986371;28;20125;-77
2023/03/24 03:44:20;;;;;;;15.30;3.00;;;9.60;99.90;;;;;;4973220;28;20176;-76
2023/03/24 03:46:45;;;;;;;15.48;2.88;;;9.60;99.90;;;;;;4993554;28;20378;-75
2023/03/24 03:49:12;;;;;;;17.17;3.00;;;9.50;99.90;;;;;;4991672;28;20064;-79
2023/03/24 03:51:38;;;;;;;18.02;3.85;;;9.50;99.90;;;;;;4962990;28;20503;-75
2023/03/24 03:54:08;;;;;;;14.15;2.90;;;9.40;99.90;;;;;;4986547;28;20049;-75
2023/03/24 03:56:36;;;;;;;12.05;2.70;;;9.40;99.90;;;;;;4976744;28;20061;-77
2023/03/24 03:59:05;;;;;;;11.73;3.08;;;9.40;99.90;;;;;;4998344;28;20046;-75
2023/03/24 04:01:35;;;;;;;17.10;3.20;;;9.30;99.90;;;;;;4976003;28;20112;-78
2023/03/24 04:04:36;;;;;;;22.58;3.65;;;9.30;99.90;;;;;;4991575;28;20082;-80
2023/03/24 04:07:23;;;;;;;19.55;3.17;;;9.30;99.90;;;;;;4998659;28;20405;-75
2023/03/24 04:10:08;;;;;;;19.73;3.25;;;9.20;99.90;;;;;;4974472;28;20076;-81
2023/03/24 04:12:39;;;;;;;16.48;3.35;;;9.20;99.90;;;;;;4992737;28;20096;-76
2023/03/24 04:15:27;;;;;;;14.85;3.33;;;9.20;99.90;;;;;;4973235;28;20520;-76
2023/03/24 04:18:22;;;;;;;17.75;3.58;;;9.20;99.90;;;;;;4989537;28;20068;-80
2023/03/24 04:21:03;;;;;;;16.42;3.60;;;9.20;99.90;;;;;;4982504;28;20559;-79
2023/03/24 04:24:02;;;;;;;17.88;3.70;;;9.20;99.90;;;;;;4993270;28;20123;-75
2023/03/24 04:26:40;;;;;;;12.57;3.10;;;9.20;99.90;;;;;;4989410;28;20129;-74
2023/03/24 04:29:33;;;;;;;15.45;3.42;;;9.20;99.90;;;;;;4997574;28;20578;-76
2023/03/24 04:32:20;;;;;;;15.93;3.90;;;9.20;99.90;;;;;;4989424;28;20084;-76
2023/03/24 04:34:53;;;;;;;15.52;3.65;;;9.20;99.90;;;;;;4988379;28;21122;-78
2023/03/24 04:37:24;;;;;;;16.10;3.08;;;9.20;99.90;;;;;;4993340;28;20057;-80
2023/03/24 04:39:57;;;;;;;20.30;3.38;;;9.20;99.90;;;;;;4989299;28;20169;-79
2023/03/24 04:42:32;;;;;;;16.70;3.38;;;9.10;99.90;;;;;;4992425;28;20046;-75
2023/03/24 04:44:59;;;;;;;18.25;3.05;;;9.10;99.90;;;;;;4982853;28;20054;-75
2023/03/24 04:47:30;;;;;;;17.17;3.40;;;9.10;99.90;;;;;;4998219;28;20053;-75
2023/03/24 04:50:08;;;;;;;17.90;3.28;;;9.10;99.90;;;;;;4992313;28;20108;-77
2023/03/24 04:52:34;;;;;;;15.70;3.08;;;9.10;99.90;;;;;;4988472;28;20049;-75
2023/03/24 04:55:01;;;;;;;16.95;3.72;;;9.10;99.90;;;;;;4991007;28;20041;-75
2023/03/24 04:57:27;;;;;;;18.52;3.80;;;9.10;99.90;;;;;;4991273;28;20046;-74
2023/03/24 04:59:52;;;;;;;17.33;2.85;;;9.00;99.90;;;;;;4991354;28;20418;-78
2023/03/24 05:02:18;;;;;;;16.15;3.08;;;9.00;99.90;;;;;;4991750;28;20062;-79
2023/03/24 05:04:44;;;;;;;16.20;2.85;;;9.00;99.90;;;;;;4990438;28;20060;-77
2023/03/24 05:07:10;;;;;;;15.02;3.40;;;9.00;99.90;;;;;;4990337;28;20392;-74
2023/03/24 05:09:36;;;;;;;15.57;3.10;;;9.00;99.90;;;;;;4988208;28;20487;-75
2023/03/24 05:12:01;;;;;;;16.08;3.28;;;9.00;99.90;;;;;;4991368;28;20148;-80
2023/03/24 05:14:30;;;;;;;18.45;3.58;;;8.90;99.90;;;;;;4991908;28;20045;-81
2023/03/24 05:16:56;;;;;;;16.10;3.15;;;8.90;99.90;;;;;;4975143;28;20050;-75
2023/03/24 05:19:21;;;;;;;20.67;3.03;;;8.90;99.90;;;;;;4989723;28;20052;-77
2023/03/24 05:21:47;;;;;;;17.83;3.03;;;8.90;99.90;;;;;;4997104;28;20074;-75
2023/03/24 05:24:13;;;;;;;13.82;3.00;;;8.90;99.90;;;;;;4976540;28;20042;-75
2023/03/24 05:26:39;;;;;;;16.63;3.60;;;8.90;99.90;;;;;;4990516;28;20046;-75
2023/03/24 05:29:05;;;;;;;17.90;3.55;;;8.90;99.90;;;;;;4972109;28;20062;-75
2023/03/24 05:31:30;;;;;;;15.68;3.35;;;8.90;99.90;;;;;;4987778;28;20060;-74
2023/03/24 05:33:57;;;;;;;22.13;3.35;;;8.90;99.90;;;;;;4992487;28;20093;-74
2023/03/24 05:36:22;;;;;;;18.13;4.25;;;8.90;99.90;;;;;;4958218;28;20050;-75
2023/03/24 05:38:48;;;;;;;15.95;2.88;;;8.90;99.90;;;;;;4991966;28;20050;-74
2023/03/24 05:41:20;;;;;;;19.27;3.58;;;8.90;99.90;;;;;;4974225;28;20096;-80
2023/03/24 05:43:46;;;;;;;16.02;3.35;;;8.90;99.90;;;;;;4990534;28;20045;-75
2023/03/24 05:46:11;;;;;;;17.05;3.20;;;8.90;99.90;;;;;;4987985;28;20050;-74
2023/03/24 05:48:37;;;;;;;20.33;3.00;;;8.90;99.90;;;;;;4978486;28;20061;-75
2023/03/24 05:51:03;;;;;;;16.70;3.67;;;8.90;99.90;;;;;;4973590;28;20086;-74
2023/03/24 05:53:29;;;;;;;18.27;3.08;;;8.90;99.90;;;;;;4997431;28;22357;-75
2023/03/24 05:55:57;;;;;;;17.38;3.00;;;8.90;99.90;;;;;;4993460;28;20053;-76
2023/03/24 05:58:23;;;;;;;18.23;3.30;;;8.90;99.90;;;;;;4979498;28;20509;-75
2023/03/24 06:00:49;;;;;;;19.55;2.85;;;8.90;99.90;;;;;;4995707;28;20052;-79
2023/03/24 06:03:16;;;;;;;15.70;3.30;;;8.90;99.90;;;;;;4993889;28;20531;-75
2023/03/24 06:05:44;;;;;;;18.42;2.92;;;8.90;99.90;;;;;;4995042;28;20510;-74
2023/03/24 06:08:11;;;;;;;20.25;3.35;;;8.90;99.90;;;;;;4991682;28;20171;-74
2023/03/24 06:10:37;;;;;;;14.80;3.25;;;8.90;99.90;;;;;;4990592;28;20300;-75
2023/03/24 06:13:03;;;;;;;22.38;4.45;;;8.90;99.90;;;;;;4974106;28;20477;-74
2023/03/24 06:15:29;;;;;;;21.42;4.00;;;8.90;99.90;;;;;;4996147;28;20092;-78
2023/03/24 06:17:55;;;;;;;17.58;3.50;;;8.90;99.90;;;;;;4993723;28;20401;-75
2023/03/24 06:20:28;;;;;;;15.55;3.85;;;8.90;99.90;;;;;;4984097;28;20451;-75
2023/03/24 06:22:57;;;;;;;21.58;3.67;;;8.90;99.90;;;;;;4990477;28;20053;-81
2023/03/24 06:25:26;;;;;;;19.38;3.53;;;8.90;99.90;;;;;;5011989;28;20332;-76
2023/03/24 06:27:52;;;;;;;20.25;4.03;;;8.90;99.90;;;;;;4961567;28;20124;-75
2023/03/24 06:30:21;;;;;;;12.27;3.00;;;8.90;99.90;;;;;;4976261;28;20387;-75
2023/03/24 06:32:47;;;;;;;20.45;3.47;;;8.90;99.90;;;;;;4974158;28;20471;-77
2023/03/24 06:35:14;;;;;;;20.58;3.55;;;8.90;99.90;;;;;;4978925;28;20054;-75
2023/03/24 06:37:41;;;;;;;17.65;3.72;;;8.90;99.90;;;;;;4978405;28;20041;-74
2023/03/24 06:40:11;;;;;;;21.25;3.92;;;9.00;99.90;;;;;;4993361;28;20052;-81
2023/03/24 06:42:37;;;;;;;18.75;3.63;;;9.00;99.90;;;;;;4991990;28;20054;-79
2023/03/24 06:45:03;;;;;;;20.00;3.90;;;9.00;99.90;;;;;;4990529;28;20052;-76
2023/03/24 06:47:29;;;;;;;16.88;3.88;;;9.00;99.90;;;;;;4957152;28;20050;-74
2023/03/24 06:49:55;;;;;;;19.60;4.13;;;9.00;99.90;;;;;;4969082;28;20046;-76
2023/03/24 06:52:20;;;;;;;19.77;3.70;;;9.10;99.90;;;;;;4979817;28;20037;-75
2023/03/24 06:54:46;;;;;;;16.83;3.60;;;9.10;99.90;;;;;;4978554;28;20045;-80
2023/03/24 06:57:12;;;;;;;22.27;4.05;;;9.20;99.90;;;;;;4956660;28;20311;-75
2023/03/24 06:59:38;;;;;;;19.77;3.65;;;9.20;99.90;;;;;;4992668;28;20045;-75
2023/03/24 07:02:04;;;;;;;21.65;4.10;;;9.20;99.90;;;;;;4991651;28;20716;-77
2023/03/24 07:04:35;;;;;;;24.80;4.20;;;9.20;99.90;;;;;;4984551;28;20144;-75
2023/03/24 07:07:02;;;;;;;20.35;4.15;;;9.20;99.90;;;;;;4999151;28;20556;-75
2023/03/24 07:09:31;;;;;;;25.65;4.60;;;9.20;99.90;;;;;;4996244;28;20400;-75
2023/03/24 07:11:57;;;;;;;29.50;5.07;;;9.30;99.90;;;;;;4966682;28;20039;-75
2023/03/24 07:14:26;;;;;;;20.85;4.07;;;9.30;99.90;;;;;;4980670;28;20053;-75
2023/03/24 07:16:52;;;;;;;21.13;4.35;;;9.30;99.90;;;;;;4997575;28;20485;-76
2023/03/24 07:19:18;;;;;;;22.17;4.25;;;9.30;99.90;;;;;;5006541;28;20069;-78
2023/03/24 07:21:48;;;;;;;21.25;4.18;;;9.30;99.90;;;;;;4976613;28;20451;-76
2023/03/24 07:24:15;;;;;;;21.88;4.65;;;9.30;99.90;;;;;;4979039;28;20104;-78
2023/03/24 07:26:41;;;;;;;24.17;4.70;;;9.30;99.90;;;;;;4972484;28;20053;-79
2023/03/24 07:29:07;;;;;;;23.45;3.83;;;9.40;99.90;;;;;;4985488;28;20388;-78
2023/03/24 07:31:36;;;;;;;23.08;4.32;;;9.40;99.90;;;;;;4978620;28;20409;-76
2023/03/24 07:34:03;;;;;;;20.40;3.95;;;9.40;99.90;;;;;;4988315;28;20077;-75
2023/03/24 07:36:29;;;;;;;23.75;3.60;;;9.50;99.90;;;;;;4970136;28;20050;-77
2023/03/24 07:38:55;;;;;;;18.30;3.90;;;9.50;99.90;;;;;;4977282;28;20050;-75
2023/03/24 07:41:23;;;;;;;25.05;3.88;;;9.60;99.90;;;;;;4956933;28;20050;-77
2023/03/24 07:43:49;;;;;;;21.95;3.90;;;9.60;99.90;;;;;;4992303;28;20052;-78
2023/03/24 07:46:15;;;;;;;17.48;3.88;;;9.70;99.90;;;;;;4991597;28;20159;-78
2023/03/24 07:48:41;;;;;;;23.90;5.22;;;9.70;99.90;;;;;;4984905;28;20140;-76
2023/03/24 07:51:08;;;;;;;21.92;4.30;;;9.80;99.90;;;;;;4978581;28;20491;-76
2023/03/24 07:53:34;;;;;;;27.73;4.30;;;9.80;99.90;;;;;;4991227;28;20097;-76
2023/03/24 07:56:00;;;;;;;21.58;4.68;;;9.90;99.90;;;;;;4988232;28;20050;-75
2023/03/24 07:58:26;;;;;;;22.90;4.50;;;10.00;99.90;;;;;;4993059;28;20455;-75
2023/03/24 08:00:52;;;;;;;24.58;4.47;;;10.10;99.90;;;;;;4992982;28;20048;-75
2023/03/24 08:03:17;;;;;;;22.52;4.25;;;10.10;99.90;;;;;;4991595;28;20417;-75
2023/03/24 08:05:43;;;;;;;20.73;3.97;;;10.20;99.90;;;;;;4978794;28;20765;-75
2023/03/24 08:08:09;;;;;;;19.65;4.07;;;10.30;99.90;;;;;;4995987;28;20100;-78
2023/03/24 08:10:38;;;;;;;20.50;4.40;;;10.40;99.90;;;;;;4974540;28;20073;-75
2023/03/24 08:13:04;;;;;;;22.40;4.47;;;10.40;99.90;;;;;;4994756;28;20060;-75
2023/03/24 08:15:30;;;;;;;22.15;4.38;;;10.50;99.90;;;;;;4977499;28;20038;-75
2023/03/24 08:17:56;;;;;;;26.05;4.07;;;10.60;99.90;;;;;;4995696;28;20061;-77
2023/03/24 08:20:23;;;;;;;22.23;4.47;;;10.60;99.90;;;;;;4994657;28;20499;-75
2023/03/24 08:22:52;;;;;;;26.77;4.53;;;10.60;99.90;;;;;;4993196;28;20076;-78
2023/03/24 08:25:19;;;;;;;25.08;4.53;;;10.70;99.90;;;;;;4994735;28;20042;-75
2023/03/24 08:27:46;;;;;;;21.13;5.18;;;10.80;99.90;;;;;;4988824;28;20050;-79
2023/03/24 08:30:21;;;;;;;28.63;5.07;;;10.80;99.90;;;;;;4976465;28;20056;-76
2023/03/24 08:32:52;;;;;;;28.85;5.07;;;10.80;99.90;;;;;;4997621;28;20046;-80
2023/03/24 08:35:21;;;;;;;21.63;5.32;;;10.90;99.90;;;;;;4993804;28;20046;-77
2023/03/24 08:37:47;;;;;;;21.70;4.50;;;10.90;99.90;;;;;;4995568;28;20081;-75
2023/03/24 08:40:18;;;;;;;22.60;4.72;;;10.90;99.90;;;;;;4977203;28;20543;-75
2023/03/24 08:42:50;;;;;;;25.30;4.97;;;10.90;99.90;;;;;;4977735;28;20366;-75
2023/03/24 08:45:19;;;;;;;25.65;4.97;;;11.00;99.90;;;;;;4989886;28;21069;-78
2023/03/24 08:47:46;;;;;;;23.05;4.90;;;11.00;99.90;;;;;;4994309;28;20046;-75
2023/03/24 08:50:13;;;;;;;20.38;3.80;;;11.10;99.90;;;;;;4990980;28;20054;-78
2023/03/24 08:52:47;;;;;;;24.08;4.20;;;11.20;99.90;;;;;;4991462;28;20046;-75
2023/03/24 08:55:17;;;;;;;18.35;4.25;;;11.40;99.90;;;;;;4995940;28;20054;-78
2023/03/24 08:57:44;;;;;;;24.65;4.60;;;11.40;99.90;;;;;;4991503;28;20329;-80
2023/03/24 09:00:14;;;;;;;19.42;4.13;;;11.80;99.90;;;;;;4994510;28;20135;-77
2023/03/24 09:02:45;;;;;;;25.25;4.68;;;11.50;99.90;;;;;;4995858;28;20045;-77
2023/03/24 09:05:12;;;;;;;19.55;4.25;;;11.70;99.90;;;;;;4977304;28;20285;-80
2023/03/24 09:07:38;;;;;;;26.42;4.50;;;11.70;99.90;;;;;;4990547;28;20057;-77
2023/03/24 09:10:06;;;;;;;18.77;4.18;;;11.80;99.90;;;;;;4991125;28;20405;-77
2023/03/24 09:12:32;;;;;;;24.98;4.85;;;11.80;99.90;;;;;;4978676;28;20054;-76
2023/03/24 09:14:58;;;;;;;24.13;4.18;;;11.90;99.90;;;;;;4993256;28;20698;-76
2023/03/24 09:17:24;;;;;;;17.92;3.95;;;11.90;99.90;;;;;;4990269;28;20080;-76
2023/03/24 09:19:50;;;;;;;17.55;3.50;;;12.00;99.90;;;;;;4985483;28;20469;-78
2023/03/24 09:22:15;;;;;;;25.02;4.38;;;12.00;99.90;;;;;;4971188;28;20512;-75
2023/03/24 09:24:43;;;;;;;21.35;3.63;;;12.10;99.90;;;;;;4995316;28;20465;-77
2023/03/24 09:27:09;;;;;;;21.48;4.00;;;12.30;99.90;;;;;;4957543;28;20061;-76
2023/03/24 09:29:35;;;;;;;16.20;3.60;;;12.30;99.90;;;;;;4990592;28;20456;-76
2023/03/24 09:32:01;;;;;;;23.60;4.30;;;12.40;99.90;;;;;;4992760;28;20133;-77
2023/03/24 09:34:27;;;;;;;19.95;4.43;;;12.60;99.90;;;;;;4991984;28;20042;-80
2023/03/24 09:36:52;;;;;;;18.55;3.72;;;12.70;99.90;;;;;;4991083;28;20072;-77
2023/03/24 09:39:18;;;;;;;15.20;3.55;;;12.80;99.90;;;;;;4973584;28;20072;-76
2023/03/24 09:41:44;;;;;;;17.58;4.22;;;12.80;99.90;;;;;;4955393;28;20112;-76
2023/03/24 09:44:26;;;;;;;20.40;4.35;;;12.80;99.90;;;;;;4990649;28;20145;-76
2023/03/24 09:46:58;;;;;;;20.30;3.70;;;12.90;99.90;;;;;;4976509;28;20080;-76
2023/03/24 09:49:32;;;;;;;22.33;4.80;;;12.90;99.90;;;;;;4978039;28;20046;-76
2023/03/24 09:52:04;;;;;;;17.52;4.25;;;13.00;99.90;;;;;;4960234;28;20054;-79
2023/03/24 09:54:58;;;;;;;21.23;4.22;;;13.10;99.90;;;;;;4994801;28;20038;-76
2023/03/24 09:57:37;;;;;;;25.02;4.55;;;13.10;99.90;;;;;;4994328;28;20050;-76
2023/03/24 10:00:18;;;;;;;23.50;5.03;;;13.00;99.90;;;;;;4970751;28;20054;-80
2023/03/24 10:02:44;;;;;;;18.50;4.15;;;13.00;99.90;;;;;;4993454;28;22360;-76
2023/03/24 10:05:34;;;;;;;19.50;4.25;;;13.10;99.90;;;;;;4994700;28;20503;-76
2023/03/24 10:08:11;;;;;;;19.65;4.68;;;13.20;99.90;;;;;;4993945;28;20479;-78
2023/03/24 10:10:51;;;;;;;25.42;4.47;;;13.20;99.90;;;;;;4993253;28;20453;-77
2023/03/24 10:13:47;;;;;;;19.33;4.22;;;13.10;99.90;;;;;;4992896;28;20053;-77
2023/03/24 10:16:39;;;;;;;19.67;4.05;;;13.20;99.90;;;;;;4976626;28;20717;-79
2023/03/24 10:19:24;;;;;;;23.10;5.32;;;13.20;99.90;;;;;;4988409;28;20054;-74
2023/03/24 10:22:09;;;;;;;23.33;4.95;;;13.20;99.90;;;;;;5010156;28;20051;-75
2023/03/24 10:25:00;;;;;;;21.33;4.00;;;13.20;99.90;;;;;;4977298;28;20500;-75
2023/03/24 10:27:30;;;;;;;22.83;4.60;;;13.20;99.90;;;;;;4960856;28;20305;-76
2023/03/24 10:30:28;;;;;;;20.77;4.35;;;13.30;99.90;;;;;;4981628;28;20053;-77
2023/03/24 10:32:54;;;;;;;19.55;4.43;;;13.20;99.90;;;;;;4995032;28;20093;-76
2023/03/24 10:35:26;;;;;;;18.95;4.38;;;13.40;99.90;;;;;;4972790;28;20467;-76
2023/03/24 10:37:56;;;;;;;21.20;5.07;;;13.40;99.90;;;;;;4998670;28;20137;-76
2023/03/24 10:40:27;;;;;;;19.92;4.05;;;13.30;99.90;;;;;;4979974;28;20050;-76
2023/03/24 10:42:55;;;;;;;20.48;4.22;;;13.60;99.90;;;;;;4987253;28;20038;-79
2023/03/24 10:45:31;;;;;;;18.45;4.13;;;13.60;99.90;;;;;;4976541;28;20073;-81
2023/03/24 10:48:00;;;;;;;21.98;4.10;;;13.80;99.90;;;;;;4975987;28;20061;-78
2023/03/24 10:50:28;;;;;;;20.60;4.55;;;13.80;99.90;;;;;;4991324;28;20050;-76
2023/03/24 10:52:55;;;;;;;21.45;4.60;;;13.60;99.90;;;;;;4991617;28;20046;-76
2023/03/24 10:55:28;;;;;;;22.13;4.40;;;13.60;99.90;;;;;;4950128;28;20054;-81
2023/03/24 10:57:56;;;;;;;21.25;4.80;;;13.60;99.90;;;;;;4983990;28;20084;-75
2023/03/24 11:00:30;;;;;;;27.10;4.55;;;13.60;99.90;;;;;;4984700;28;20195;-78
2023/03/24 11:03:07;;;;;;;20.65;4.43;;;13.80;99.90;;;;;;4980655;28;20093;-76
2023/03/24 11:05:36;;;;;;;24.80;4.20;;;14.00;99.90;;;;;;5005960;28;20537;-76
2023/03/24 11:08:17;;;;;;;26.30;4.50;;;14.10;99.90;;;;;;4982711;28;20046;-78
2023/03/24 11:10:43;;;;;;;20.65;4.07;;;14.20;99.90;;;;;;4981607;28;20516;-78
2023/03/24 11:13:24;;;;;;;20.58;3.63;;;14.30;99.90;;;;;;4996821;28;20058;-75
2023/03/24 11:16:27;;;;;;;17.40;3.40;;;14.10;99.90;;;;;;4999310;28;20050;-78
2023/03/24 11:19:02;;;;;;;18.27;4.10;;;14.20;99.90;;;;;;4968430;28;20516;-75
2023/03/24 11:21:30;;;;;;;19.90;3.92;;;14.30;99.90;;;;;;4998444;28;20531;-76
2023/03/24 11:24:10;;;;;;;15.60;4.25;;;14.30;99.90;;;;;;4998166;28;20054;-76
2023/03/24 11:26:37;;;;;;;18.55;3.65;;;14.30;99.90;;;;;;4998583;28;20133;-78
2023/03/24 11:29:13;;;;;;;18.13;4.03;;;14.40;99.90;;;;;;4999093;28;20038;-77
2023/03/24 11:31:39;;;;;;;18.45;4.00;;;14.40;99.90;;;;;;4998219;28;20085;-79
2023/03/24 11:34:23;;;;;;;24.20;4.35;;;14.40;99.90;;;;;;4998837;28;20081;-76
2023/03/24 11:36:53;;;;;;;19.70;3.97;;;14.50;99.90;;;;;;4999972;28;20133;-76
2023/03/24 11:39:25;;;;;;;17.58;4.25;;;14.50;99.90;;;;;;4998716;28;20508;-80
2023/03/24 11:42:15;;;;;;;18.05;3.33;;;14.50;99.90;;;;;;5000113;28;20113;-77
2023/03/24 11:44:44;;;;;;;18.27;3.95;;;14.60;99.90;;;;;;4981422;28;20046;-77
2023/03/24 11:47:32;;;;;;;21.40;4.13;;;14.60;99.90;;;;;;4997577;28;20109;-76
2023/03/24 11:50:10;;;;;;;17.45;4.40;;;14.70;99.90;;;;;;4998449;28;20470;-77
2023/03/24 11:53:00;;;;;;;21.95;4.30;;;14.90;99.90;;;;;;4997947;28;20089;-77
2023/03/24 11:55:35;;;;;;;21.98;4.35;;;15.00;99.90;;;;;;4999210;28;20038;-76
2023/03/24 11:58:40;;;;;;;18.15;4.00;;;15.10;99.90;;;;;;4997452;28;20412;-77
2023/03/24 12:01:20;;;;;;;16.85;4.15;;;15.20;99.90;;;;;;4998511;28;20046;-75
2023/03/24 12:04:14;;;;;;;13.65;3.55;;;15.20;99.90;;;;;;4998613;28;20052;-77
2023/03/24 12:06:46;;;;;;;16.20;3.35;;;15.30;99.90;;;;;;4998160;28;20176;-75
2023/03/24 12:09:31;;;;;;;14.88;3.25;;;15.30;99.90;;;;;;4980753;28;20125;-76
2023/03/24 12:12:20;;;;;;;16.75;3.13;;;15.30;99.90;;;;;;4990047;28;20057;-76
2023/03/24 12:14:59;;;;;;;16.95;3.63;;;15.10;99.90;;;;;;4998356;28;20050;-76
2023/03/24 12:17:39;;;;;;;18.23;3.70;;;15.10;99.90;;;;;;4998373;28;20054;-78
2023/03/24 12:20:14;;;;;;;20.63;4.00;;;15.00;99.90;;;;;;4996642;28;20060;-76
2023/03/24 12:22:54;;;;;;;18.52;3.90;;;15.00;99.90;;;;;;4996607;28;20091;-76
2023/03/24 12:25:39;;;;;;;15.20;3.60;;;14.90;99.90;;;;;;4998056;28;20056;-76
2023/03/24 12:28:08;;;;;;;24.65;3.85;;;15.10;99.90;;;;;;4997654;28;20132;-78
2023/03/24 12:30:33;;;;;;;17.30;3.55;;;15.30;99.90;;;;;;4998083;28;20050;-77
2023/03/24 12:33:54;;;;;;;15.82;3.17;;;15.40;99.90;;;;;;4993337;28;20480;-77
2023/03/24 12:36:57;;;;;;;19.30;3.60;;;15.40;99.90;;;;;;4957458;28;20062;-78
2023/03/24 12:39:28;;;;;;;21.90;4.35;;;15.40;99.90;;;;;;4944326;28;20038;-78
2023/03/24 12:42:04;;;;;;;19.23;3.97;;;15.50;99.90;;;;;;4991946;28;20456;-77
2023/03/24 12:44:52;;;;;;;21.55;4.03;;;15.40;99.90;;;;;;4980489;28;20096;-77
2023/03/24 12:48:04;;;;;;;14.73;3.65;;;15.40;99.90;;;;;;4997120;28;20050;-76
2023/03/24 12:50:41;;;;;;;17.23;3.97;;;15.50;99.90;;;;;;4980850;28;20564;-77
2023/03/24 12:53:22;;;;;;;16.50;2.95;;;15.60;99.90;;;;;;4996825;28;20049;-76
2023/03/24 12:56:00;;;;;;;18.75;3.95;;;15.60;99.90;;;;;;5005494;28;20054;-77
2023/03/24 12:58:29;;;;;;;20.10;3.97;;;15.50;99.90;;;;;;4997081;28;20119;-78
2023/03/24 13:01:11;;;;;;;21.55;4.13;;;15.60;99.90;;;;;;4997345;28;20050;-78
2023/03/24 13:03:48;;;;;;;19.67;3.90;;;15.60;99.90;;;;;;4999533;28;20488;-77
2023/03/24 13:06:28;;;;;;;17.25;3.40;;;15.50;99.90;;;;;;4996723;28;20054;-78
2023/03/24 13:09:19;;;;;;;21.40;4.35;;;15.50;99.90;;;;;;4997916;28;20046;-77